createdAt,value
2018-05-07T00:00:37.197Z,64.75
2018-05-07T00:01:37.180Z,64.75
2018-05-07T00:02:37.230Z,64.94
2018-05-07T00:03:37.178Z,64.18
2018-05-07T00:04:37.185Z,64.85
2018-05-07T00:05:37.170Z,64.37
2018-05-07T00:06:37.163Z,64.85
2018-05-07T00:07:37.161Z,65.14
2018-05-07T00:08:37.153Z,65.33
2018-05-07T00:09:37.189Z,65.23
2018-05-07T00:10:37.144Z,65.23
2018-05-07T00:11:37.168Z,65.14
2018-05-07T00:12:37.140Z,65.42
2018-05-07T00:13:37.127Z,65.14
2018-05-07T00:14:37.149Z,65.23
2018-05-07T00:15:37.198Z,65.14
2018-05-07T00:16:37.126Z,65.33
2018-05-07T00:17:37.120Z,65.23
2018-05-07T00:18:37.096Z,65.52
2018-05-07T00:19:37.101Z,65.42
2018-05-07T00:20:37.197Z,65.04
2018-05-07T00:21:37.107Z,65.23
2018-05-07T00:22:37.118Z,65.33
2018-05-07T00:23:37.091Z,64.94
2018-05-07T00:24:37.090Z,65.48
2018-05-07T00:25:37.076Z,66.28
2018-05-07T00:26:37.138Z,65.96
2018-05-07T00:27:37.067Z,65.96
2018-05-07T00:28:37.063Z,65.67
2018-05-07T00:29:37.060Z,66.28
2018-05-07T00:30:37.064Z,65.42
2018-05-07T00:31:37.080Z,66.19
2018-05-07T00:32:37.044Z,65.90
2018-05-07T00:33:37.043Z,65.77
2018-05-07T00:34:37.038Z,66.06
2018-05-07T00:35:37.035Z,65.96
2018-05-07T00:36:37.062Z,65.87
2018-05-07T00:37:37.017Z,65.87
2018-05-07T00:38:37.013Z,65.67
2018-05-07T00:39:37.013Z,65.96
2018-05-07T00:40:37.009Z,66.44
2018-05-07T00:41:37.001Z,65.87
2018-05-07T00:42:37.001Z,65.67
2018-05-07T00:43:36.993Z,65.77
2018-05-07T00:44:36.999Z,65.77
2018-05-07T00:45:36.996Z,65.77
2018-05-07T00:46:36.989Z,66.06
2018-05-07T00:47:36.990Z,65.87
2018-05-07T00:48:36.987Z,65.96
2018-05-07T00:49:36.977Z,65.58
2018-05-07T00:50:36.973Z,65.87
2018-05-07T00:51:36.961Z,65.96
2018-05-07T00:52:36.978Z,66.15
2018-05-07T00:53:36.965Z,66.53
2018-05-07T00:54:36.953Z,66.35
2018-05-07T00:55:36.958Z,66.53
2018-05-07T00:56:36.946Z,66.72
2018-05-07T00:57:36.940Z,66.25
2018-05-07T00:58:36.931Z,65.77
2018-05-07T00:59:36.932Z,65.96
2018-05-07T01:00:36.933Z,66.15
2018-05-07T01:01:36.917Z,66.72
2018-05-07T01:02:36.916Z,66.35
2018-05-07T01:03:36.902Z,65.96
2018-05-07T01:04:36.907Z,66.25
2018-05-07T01:05:36.903Z,66.44
2018-05-07T01:06:36.900Z,66.72
2018-05-07T01:07:36.894Z,66.53
2018-05-07T01:08:36.885Z,66.53
2018-05-07T01:09:36.879Z,67.01
2018-05-07T01:10:36.874Z,67.40
2018-05-07T01:11:36.875Z,67.40
2018-05-07T01:12:36.860Z,67.11
2018-05-07T01:13:37.361Z,67.11
2018-05-07T01:14:37.375Z,67.01
2018-05-07T01:15:37.372Z,67.11
2018-05-07T01:17:36.849Z,67.30
2018-05-07T01:18:36.854Z,67.55
2018-05-07T01:19:36.867Z,67.55
2018-05-07T01:20:36.841Z,67.83
2018-05-07T01:21:36.829Z,68.22
2018-05-07T01:22:36.839Z,68.03
2018-05-07T01:23:57.825Z,68.12
2018-05-07T01:24:36.849Z,68.32
2018-05-07T01:25:36.812Z,68.70
2018-05-07T01:26:36.829Z,68.51
2018-05-07T01:27:36.804Z,68.41
2018-05-07T01:28:36.814Z,69.08
2018-05-07T01:29:57.805Z,69.08
2018-05-07T02:02:00.910Z,72.19
2018-05-07T02:03:00.880Z,72.67
2018-05-07T02:04:53.749Z,72.76
2018-05-07T02:05:53.738Z,72.57
2018-05-07T02:07:46.650Z,72.86
2018-05-07T02:08:46.604Z,72.67
2018-05-07T02:10:39.567Z,73.24
2018-05-07T02:11:39.546Z,73.14
2018-05-07T02:13:32.500Z,73.24
2018-05-07T02:14:32.471Z,73.14
2018-05-07T02:16:25.378Z,73.24
2018-05-07T02:17:25.363Z,73.24
2018-05-07T02:19:18.295Z,74.19
2018-05-07T02:20:18.274Z,73.91
2018-05-07T02:22:11.186Z,74.10
2018-05-07T02:23:11.167Z,73.91
2018-05-07T02:25:04.110Z,74.48
2018-05-07T02:26:04.084Z,74.48
2018-05-07T02:27:57.002Z,74.48
2018-05-07T02:28:56.977Z,75.24
2018-05-07T02:30:49.908Z,74.38
2018-05-07T02:31:49.894Z,75.34
2018-05-07T02:33:42.803Z,74.96
2018-05-07T02:34:42.787Z,75.24
2018-05-07T02:36:36.739Z,75.05
2018-05-07T02:37:36.727Z,74.77
2018-05-07T02:39:29.634Z,75.72
2018-05-07T02:40:29.612Z,75.43
2018-05-07T02:42:22.644Z,75.15
2018-05-07T02:43:22.528Z,74.96
2018-05-07T02:45:15.448Z,75.15
2018-05-07T02:46:15.432Z,75.81
2018-05-07T02:48:08.364Z,75.72
2018-05-07T02:49:08.356Z,75.96
2018-05-07T02:51:01.241Z,76.35
2018-05-07T02:52:01.219Z,76.48
2018-05-07T02:53:54.178Z,76.77
2018-05-07T02:54:54.143Z,77.20
2018-05-07T02:56:47.037Z,77.01
2018-05-07T02:57:47.018Z,77.11
2018-05-07T02:59:39.946Z,77.30
2018-05-07T03:00:39.917Z,77.40
2018-05-07T03:02:32.814Z,78.16
2018-05-07T03:03:32.798Z,77.30
2018-05-07T03:05:25.706Z,77.59
2018-05-07T03:06:25.679Z,77.20
2018-05-07T03:08:18.626Z,78.35
2018-05-07T03:09:18.612Z,77.97
2018-05-07T03:11:11.508Z,77.97
2018-05-07T03:12:11.500Z,78.16
2018-05-07T03:14:04.424Z,79.30
2018-05-07T03:15:04.414Z,79.02
2018-05-07T03:16:57.315Z,79.02
2018-05-07T03:17:57.292Z,79.40
2018-05-07T03:19:50.235Z,79.68
2018-05-07T03:20:50.222Z,79.30
2018-05-07T03:22:43.121Z,79.68
2018-05-07T03:23:43.097Z,79.78
2018-05-07T03:25:36.049Z,79.78
2018-05-07T03:26:36.027Z,79.97
2018-05-07T03:28:28.918Z,80.26
2018-05-07T03:29:28.904Z,80.92
2018-05-07T03:31:21.849Z,81.30
2018-05-07T03:32:21.827Z,81.12
2018-05-07T03:35:05.686Z,81.02
2018-05-07T03:36:05.665Z,81.78
2018-05-07T03:37:58.579Z,82.79
2018-05-07T03:38:58.559Z,82.92
2018-05-07T03:40:51.514Z,83.84
2018-05-07T03:41:51.485Z,83.36
2018-05-07T03:43:44.375Z,84.69
2018-05-07T03:44:44.368Z,85.17
2018-05-07T03:46:37.314Z,85.08
2018-05-07T03:47:37.294Z,85.84
2018-05-07T03:49:30.183Z,85.08
2018-05-07T03:50:30.167Z,85.74
2018-05-07T03:52:23.087Z,86.03
2018-05-07T03:53:23.063Z,85.93
2018-05-07T03:55:15.968Z,86.32
2018-05-07T03:56:15.949Z,86.22
2018-05-07T03:58:08.861Z,85.84
2018-05-07T03:59:08.833Z,86.32
2018-05-07T04:01:01.767Z,87.07
2018-05-07T04:02:01.759Z,86.88
2018-05-07T04:03:54.652Z,87.84
2018-05-07T04:04:54.617Z,88.60
2018-05-07T04:06:47.567Z,88.12
2018-05-07T04:07:47.551Z,88.51
2018-05-07T04:09:40.499Z,87.36
2018-05-07T04:10:40.490Z,87.65
2018-05-07T04:12:33.471Z,87.27
2018-05-07T04:13:33.421Z,87.55
2018-05-07T04:15:26.327Z,87.74
2018-05-07T04:16:26.309Z,87.93
2018-05-07T04:18:19.252Z,87.84
2018-05-07T04:19:19.244Z,87.17
2018-05-07T04:21:12.143Z,87.17
2018-05-07T04:22:12.128Z,88.12
2018-05-07T04:24:05.109Z,88.70
2018-05-07T04:25:05.087Z,88.12
2018-05-07T04:26:58.014Z,86.79
2018-05-07T04:27:58.001Z,87.55
2018-05-07T04:29:50.918Z,86.83
2018-05-07T04:30:50.899Z,87.07
2018-05-07T04:32:43.858Z,87.98
2018-05-07T04:33:43.884Z,87.12
2018-05-07T04:35:36.825Z,87.21
2018-05-07T04:36:36.802Z,87.12
2018-05-07T04:38:29.771Z,86.83
2018-05-07T04:39:29.755Z,87.12
2018-05-07T04:41:22.730Z,87.12
2018-05-07T04:42:22.707Z,85.88
2018-05-07T04:44:15.684Z,86.45
2018-05-07T04:45:15.661Z,87.12
2018-05-07T04:47:08.633Z,86.36
2018-05-07T04:48:08.617Z,86.36
2018-05-07T04:50:01.620Z,85.69
2018-05-07T04:51:01.590Z,85.60
2018-05-07T04:52:54.638Z,86.16
2018-05-07T04:53:54.626Z,86.07
2018-05-07T04:55:47.547Z,85.88
2018-05-07T04:56:47.530Z,85.31
2018-05-07T04:58:40.422Z,86.74
2018-05-07T04:59:40.427Z,85.97
2018-05-07T05:01:33.340Z,86.36
2018-05-07T05:02:33.319Z,86.16
2018-05-07T05:05:17.317Z,86.16
2018-05-07T05:06:17.319Z,86.26
2018-05-07T05:08:10.243Z,85.21
2018-05-07T05:09:10.186Z,85.88
2018-05-07T05:11:03.092Z,86.30
2018-05-07T05:12:03.069Z,86.40
2018-05-07T05:13:55.972Z,86.30
2018-05-07T05:14:55.960Z,85.73
2018-05-07T05:16:48.981Z,86.59
2018-05-07T05:17:48.959Z,85.21
2018-05-07T05:19:41.851Z,86.69
2018-05-07T05:20:41.835Z,86.98
2018-05-07T05:22:34.795Z,86.98
2018-05-07T05:23:34.769Z,86.21
2018-05-07T05:25:27.731Z,86.21
2018-05-07T05:26:27.713Z,86.11
2018-05-07T05:28:20.667Z,86.30
2018-05-07T05:29:20.634Z,85.93
2018-05-07T05:31:13.524Z,86.49
2018-05-07T05:32:13.499Z,85.73
2018-05-07T05:34:06.395Z,85.25
2018-05-07T05:35:06.381Z,84.59
2018-05-07T05:36:59.294Z,84.49
2018-05-07T05:37:59.277Z,84.30
2018-05-07T05:39:52.188Z,84.49
2018-05-07T05:40:52.145Z,84.69
2018-05-07T05:42:45.067Z,83.96
2018-05-07T05:43:45.151Z,83.77
2018-05-07T05:45:37.957Z,82.82
2018-05-07T05:46:37.942Z,82.82
2018-05-07T05:48:30.859Z,83.96
2018-05-07T05:49:30.822Z,82.24
2018-05-07T05:51:23.759Z,82.15
2018-05-07T05:52:23.722Z,82.43
2018-05-07T05:54:16.750Z,84.34
2018-05-07T05:55:16.747Z,83.20
2018-05-07T05:57:09.642Z,84.72
2018-05-07T05:58:09.627Z,83.77
2018-05-07T06:00:02.552Z,83.29
2018-05-07T06:01:02.523Z,82.24
2018-05-07T06:02:55.460Z,83.24
2018-05-07T06:03:55.528Z,81.04
2018-05-07T06:05:48.361Z,79.80
2018-05-07T06:06:48.342Z,81.14
2018-05-07T06:07:48.329Z,83.05
2018-05-07T06:08:48.326Z,79.90
2018-05-07T06:09:48.325Z,80.47
2018-05-07T06:10:48.350Z,80.19
2018-05-07T06:11:48.316Z,79.99
2018-05-07T06:12:48.316Z,79.27
2018-05-07T06:13:48.307Z,78.13
2018-05-07T06:14:48.325Z,80.13
2018-05-07T06:15:48.306Z,77.36
2018-05-07T06:16:48.299Z,77.36
2018-05-07T06:17:48.293Z,77.65
2018-05-07T06:18:48.295Z,77.55
2018-05-07T06:19:48.289Z,78.41
2018-05-07T06:20:48.293Z,77.74
2018-05-07T06:21:48.283Z,78.13
2018-05-07T06:22:48.282Z,78.99
2018-05-07T06:23:48.279Z,77.74
2018-05-07T06:24:48.275Z,77.55
2018-05-07T06:25:48.271Z,77.45
2018-05-07T06:26:48.284Z,77.78
2018-05-07T06:27:48.287Z,76.82
2018-05-07T06:28:48.261Z,77.30
2018-05-07T06:29:48.260Z,76.86
2018-05-07T06:30:48.257Z,74.05
2018-05-07T06:31:48.251Z,75.30
2018-05-07T06:32:48.261Z,75.49
2018-05-07T06:33:48.246Z,75.49
2018-05-07T06:34:48.234Z,75.62
2018-05-07T06:35:48.235Z,75.62
2018-05-07T06:36:48.239Z,74.28
2018-05-07T06:37:48.236Z,74.28
2018-05-07T06:38:48.231Z,74.57
2018-05-07T06:39:48.233Z,74.28
2018-05-07T06:40:48.225Z,73.33
2018-05-07T06:41:48.213Z,73.94
2018-05-07T06:42:48.222Z,73.23
2018-05-07T06:43:48.214Z,73.99
2018-05-07T06:44:48.216Z,73.84
2018-05-07T06:45:48.225Z,72.79
2018-05-07T06:46:48.207Z,72.41
2018-05-07T06:47:48.223Z,72.12
2018-05-07T06:48:48.207Z,72.02
2018-05-07T06:49:48.201Z,71.55
2018-05-07T06:50:48.202Z,72.16
2018-05-07T06:51:48.196Z,71.07
2018-05-07T06:52:48.193Z,71.36
2018-05-07T06:53:48.197Z,70.59
2018-05-07T06:54:48.189Z,71.16
2018-05-07T06:55:48.191Z,69.57
2018-05-07T06:56:48.187Z,69.80
2018-05-07T06:57:48.182Z,69.51
2018-05-07T06:58:48.179Z,68.74
2018-05-07T06:59:48.184Z,68.55
2018-05-07T07:00:48.177Z,68.87
2018-05-07T07:01:48.172Z,68.74
2018-05-07T07:02:48.446Z,68.30
2018-05-07T07:03:48.171Z,68.27
2018-05-07T07:04:48.168Z,67.72
2018-05-07T07:05:48.178Z,67.69
2018-05-07T07:06:48.154Z,67.50
2018-05-07T07:07:48.166Z,67.98
2018-05-07T07:08:48.164Z,67.25
2018-05-07T07:09:48.155Z,66.38
2018-05-07T07:10:48.151Z,66.19
2018-05-07T07:11:48.153Z,63.32
2018-05-07T07:12:48.148Z,63.22
2018-05-07T07:13:48.148Z,63.51
2018-05-07T07:14:48.146Z,62.48
2018-05-07T07:15:48.146Z,61.55
2018-05-07T07:16:48.148Z,60.85
2018-05-07T07:17:48.147Z,60.47
2018-05-07T07:18:48.148Z,61.05
2018-05-07T07:19:48.153Z,61.05
2018-05-07T07:20:48.174Z,61.91
2018-05-07T07:21:48.211Z,61.43
2018-05-07T07:22:48.163Z,62.29
2018-05-07T07:23:48.179Z,60.38
2018-05-07T07:24:48.174Z,60.66
2018-05-07T07:25:48.183Z,60.08
2018-05-07T07:26:48.186Z,60.47
2018-05-07T07:27:48.199Z,60.28
2018-05-07T07:28:48.199Z,61.17
2018-05-07T07:29:48.210Z,59.83
2018-05-07T07:30:48.213Z,59.54
2018-05-07T07:31:48.229Z,59.25
2018-05-07T07:32:48.227Z,60.69
2018-05-07T07:33:48.303Z,59.95
2018-05-07T07:34:48.264Z,59.19
2018-05-07T07:35:48.257Z,59.09
2018-05-07T07:36:48.262Z,59.06
2018-05-07T07:37:48.266Z,59.16
2018-05-07T07:38:48.280Z,59.66
2018-05-07T07:39:48.284Z,59.22
2018-05-07T07:40:48.292Z,58.73
2018-05-07T07:41:48.306Z,58.89
2018-05-07T07:42:48.307Z,59.73
2018-05-07T07:43:48.314Z,59.16
2018-05-07T07:44:48.342Z,60.57
2018-05-07T07:45:48.356Z,60.31
2018-05-07T07:46:48.345Z,59.80
2018-05-07T07:47:48.370Z,59.34
2018-05-07T07:48:48.384Z,59.28
2018-05-07T07:49:48.381Z,59.09
2018-05-07T07:50:48.392Z,59.79
2018-05-07T07:51:48.403Z,58.64
2018-05-07T07:52:48.412Z,58.83
2018-05-07T07:53:48.442Z,58.60
2018-05-07T07:54:48.429Z,55.62
2018-05-07T07:55:48.437Z,54.87
2018-05-07T07:56:48.456Z,55.81
2018-05-07T07:57:48.466Z,55.68
2018-05-07T07:58:48.472Z,56.16
2018-05-07T07:59:48.487Z,56.99
2018-05-07T08:00:48.502Z,55.60
2018-05-07T08:01:48.506Z,54.25
2018-05-07T08:02:48.514Z,53.94
2018-05-07T08:03:48.533Z,53.45
2018-05-07T08:04:48.551Z,54.10
2018-05-07T08:05:48.563Z,54.30
2018-05-07T08:06:48.580Z,54.13
2018-05-07T08:07:48.592Z,54.13
2018-05-07T08:08:48.594Z,55.26
2018-05-07T08:09:48.603Z,54.42
2018-05-07T08:10:48.617Z,54.20
2018-05-07T08:11:48.630Z,54.10
2018-05-07T08:12:48.644Z,54.06
2018-05-07T08:13:48.642Z,53.48
2018-05-07T08:14:48.660Z,53.29
2018-05-07T08:15:48.701Z,52.71
2018-05-07T08:16:48.696Z,52.87
2018-05-07T08:17:48.710Z,53.27
2018-05-07T08:18:48.716Z,54.10
2018-05-07T08:19:48.734Z,54.39
2018-05-07T08:20:49.414Z,54.25
2018-05-07T08:21:48.767Z,52.55
2018-05-07T08:22:48.774Z,51.56
2018-05-07T08:23:48.782Z,52.04
2018-05-07T08:24:48.837Z,51.84
2018-05-07T08:25:48.818Z,51.60
2018-05-07T08:26:48.837Z,52.45
2018-05-07T08:27:48.835Z,52.33
2018-05-07T08:28:48.845Z,52.67
2018-05-07T08:29:48.857Z,51.15
2018-05-07T08:30:48.862Z,50.86
2018-05-07T08:31:48.883Z,50.01
2018-05-07T08:32:48.899Z,52.52
2018-05-07T08:33:48.913Z,52.45
2018-05-07T08:34:49.849Z,52.55
2018-05-07T08:35:49.850Z,50.84
2018-05-07T08:36:49.856Z,51.32
2018-05-07T08:37:48.968Z,50.28
2018-05-07T08:38:48.971Z,50.06
2018-05-07T08:39:49.012Z,49.92
2018-05-07T08:40:49.004Z,50.38
2018-05-07T08:41:49.027Z,51.20
2018-05-07T08:42:49.028Z,52.45
2018-05-07T08:43:49.040Z,52.47
2018-05-07T08:44:49.053Z,50.69
2018-05-07T08:45:49.064Z,51.23
2018-05-07T08:46:49.086Z,48.49
2018-05-07T08:47:49.099Z,47.99
2018-05-07T08:48:49.115Z,50.11
2018-05-07T08:49:49.141Z,49.24
2018-05-07T08:50:49.160Z,50.98
2018-05-07T08:51:49.157Z,49.63
2018-05-07T08:52:49.223Z,49.92
2018-05-07T08:53:49.202Z,50.67
2018-05-07T08:54:49.202Z,51.20
2018-05-07T08:55:49.222Z,52.64
2018-05-07T08:56:49.240Z,52.50
2018-05-07T08:57:49.239Z,51.78
2018-05-07T08:58:49.257Z,50.16
2018-05-07T08:59:49.279Z,49.41
2018-05-07T09:00:49.292Z,48.23
2018-05-07T09:01:49.307Z,49.34
2018-05-07T09:02:49.321Z,49.63
2018-05-07T09:03:49.336Z,51.07
2018-05-07T09:04:49.348Z,50.21
2018-05-07T09:05:49.374Z,49.73
2018-05-07T09:06:49.385Z,49.51
2018-05-07T09:07:49.397Z,51.15
2018-05-07T09:08:49.413Z,50.47
2018-05-07T09:09:49.416Z,50.28
2018-05-07T09:10:49.436Z,51.20
2018-05-07T09:11:49.446Z,50.54
2018-05-07T09:12:49.469Z,49.15
2018-05-07T09:13:49.481Z,47.94
2018-05-07T09:14:49.501Z,47.72
2018-05-07T09:15:49.515Z,48.39
2018-05-07T09:16:49.531Z,48.21
2018-05-07T09:17:49.543Z,48.11
2018-05-07T09:18:49.557Z,49.07
2018-05-07T09:19:49.573Z,50.18
2018-05-07T09:20:49.590Z,49.46
2018-05-07T09:21:49.607Z,49.53
2018-05-07T09:22:49.624Z,48.71
2018-05-07T09:23:49.630Z,47.55
2018-05-07T09:24:49.741Z,46.12
2018-05-07T09:25:49.668Z,45.86
2018-05-07T09:26:49.681Z,47.02
2018-05-07T09:27:49.693Z,46.15
2018-05-07T09:28:49.710Z,46.22
2018-05-07T09:29:49.726Z,46.54
2018-05-07T09:30:49.739Z,47.96
2018-05-07T09:31:49.755Z,47.99
2018-05-07T09:32:49.768Z,46.63
2018-05-07T09:33:49.787Z,46.34
2018-05-07T09:34:49.803Z,46.10
2018-05-07T09:35:49.814Z,45.72
2018-05-07T09:36:49.833Z,45.52
2018-05-07T09:37:49.848Z,46.73
2018-05-07T09:38:49.864Z,45.74
2018-05-07T09:39:49.881Z,47.99
2018-05-07T09:40:49.894Z,47.00
2018-05-07T09:41:49.908Z,45.35
2018-05-07T09:42:49.936Z,44.84
2018-05-07T09:43:49.933Z,46.22
2018-05-07T09:44:49.956Z,46.44
2018-05-07T09:45:49.974Z,43.85
2018-05-07T09:46:49.987Z,44.67
2018-05-07T09:47:50.003Z,44.53
2018-05-07T09:48:50.046Z,45.37
2018-05-07T09:49:50.037Z,44.91
2018-05-07T09:50:50.050Z,43.80
2018-05-07T09:51:50.072Z,46.12
2018-05-07T09:52:50.084Z,46.53
2018-05-07T09:53:50.101Z,45.37
2018-05-07T09:54:50.121Z,45.20
2018-05-07T09:55:50.151Z,45.10
2018-05-07T09:56:50.253Z,44.13
2018-05-07T09:57:50.162Z,43.60
2018-05-07T09:58:50.179Z,43.41
2018-05-07T09:59:50.199Z,44.04
2018-05-07T10:00:50.213Z,44.04
2018-05-07T10:01:50.239Z,45.42
2018-05-07T10:02:50.243Z,44.57
2018-05-07T10:03:50.263Z,43.65
2018-05-07T10:04:50.302Z,45.28
2018-05-07T10:05:50.283Z,44.67
2018-05-07T10:06:50.306Z,45.57
2018-05-07T10:07:50.328Z,45.51
2018-05-07T10:08:50.342Z,45.28
2018-05-07T10:09:50.360Z,47.26
2018-05-07T10:10:50.373Z,47.14
2018-05-07T10:11:50.390Z,44.72
2018-05-07T10:12:50.398Z,44.23
2018-05-07T10:13:50.419Z,45.30
2018-05-07T10:14:50.438Z,45.18
2018-05-07T10:15:50.454Z,46.34
2018-05-07T10:16:50.469Z,45.28
2018-05-07T10:17:50.487Z,44.48
2018-05-07T10:18:50.503Z,46.73
2018-05-07T10:19:50.517Z,46.87
2018-05-07T10:20:50.535Z,45.20
2018-05-07T10:21:50.553Z,46.46
2018-05-07T10:22:50.562Z,45.49
2018-05-07T10:23:50.576Z,44.91
2018-05-07T10:24:50.599Z,44.62
2018-05-07T10:25:50.625Z,45.90
2018-05-07T10:26:50.631Z,44.33
2018-05-07T10:27:50.645Z,44.16
2018-05-07T10:28:50.663Z,45.49
2018-05-07T10:29:50.685Z,45.20
2018-05-07T10:30:50.694Z,45.42
2018-05-07T10:31:50.744Z,44.84
2018-05-07T10:32:50.743Z,45.30
2018-05-07T10:33:50.736Z,45.18
2018-05-07T10:34:50.768Z,45.28
2018-05-07T10:35:50.782Z,45.86
2018-05-07T10:36:50.792Z,46.15
2018-05-07T10:37:50.856Z,46.77
2018-05-07T10:38:50.825Z,45.42
2018-05-07T10:39:50.837Z,43.77
2018-05-07T10:40:50.867Z,44.57
2018-05-07T10:41:50.878Z,45.40
2018-05-07T10:42:50.911Z,45.49
2018-05-07T10:43:50.918Z,44.64
2018-05-07T10:44:50.918Z,46.00
2018-05-07T10:45:50.939Z,45.48
2018-05-07T10:46:50.948Z,44.68
2018-05-07T10:47:50.963Z,43.50
2018-05-07T10:48:50.977Z,44.13
2018-05-07T10:49:51.009Z,44.81
2018-05-07T10:50:51.010Z,45.98
2018-05-07T10:51:51.029Z,44.68
2018-05-07T10:52:51.050Z,44.76
2018-05-07T10:53:51.060Z,44.57
2018-05-07T10:54:51.079Z,46.31
2018-05-07T10:55:51.091Z,43.82
2018-05-07T10:56:51.099Z,43.12
2018-05-07T10:57:51.116Z,44.71
2018-05-07T10:58:51.128Z,42.40
2018-05-07T10:59:51.156Z,42.40
2018-05-07T11:00:51.174Z,43.35
2018-05-07T11:01:51.193Z,42.82
2018-05-07T11:02:51.202Z,43.50
2018-05-07T11:03:51.231Z,45.15
2018-05-07T11:04:51.247Z,45.56
2018-05-07T11:05:51.271Z,43.52
2018-05-07T11:06:51.311Z,45.20
2018-05-07T11:07:51.279Z,44.59
2018-05-07T11:08:51.289Z,45.34
2018-05-07T11:09:51.316Z,47.38
2018-05-07T11:10:51.339Z,44.78
2018-05-07T11:11:51.348Z,43.62
2018-05-07T11:12:51.361Z,44.23
2018-05-07T11:13:51.377Z,44.81
2018-05-07T11:14:51.397Z,45.81
2018-05-07T11:15:51.410Z,44.74
2018-05-07T11:16:51.448Z,44.43
2018-05-07T11:17:51.448Z,44.33
2018-05-07T11:18:51.477Z,46.39
2018-05-07T11:19:51.578Z,44.37
2018-05-07T11:20:51.489Z,45.34
2018-05-07T11:21:51.507Z,45.13
2018-05-07T11:22:51.517Z,46.53
2018-05-07T11:23:51.536Z,46.07
2018-05-07T11:24:51.551Z,46.36
2018-05-07T11:25:51.567Z,44.23
2018-05-07T11:26:51.582Z,44.83
2018-05-07T11:27:51.609Z,42.40
2018-05-07T11:28:51.620Z,43.18
2018-05-07T11:29:51.629Z,44.19
2018-05-07T11:30:51.649Z,43.30
2018-05-07T11:31:51.660Z,42.79
2018-05-07T11:32:51.677Z,44.13
2018-05-07T11:33:51.706Z,43.35
2018-05-07T11:34:51.708Z,43.82
2018-05-07T11:35:51.723Z,45.75
2018-05-07T11:36:51.764Z,44.30
2018-05-07T11:37:51.754Z,44.57
2018-05-07T11:38:51.776Z,44.67
2018-05-07T11:39:51.804Z,44.45
2018-05-07T11:40:51.797Z,44.09
2018-05-07T11:41:51.818Z,44.35
2018-05-07T11:42:51.832Z,46.02
2018-05-07T11:43:51.850Z,44.40
2018-05-07T11:44:51.867Z,44.64
2018-05-07T11:45:51.885Z,45.64
2018-05-07T11:46:51.895Z,44.78
2018-05-07T11:47:51.926Z,43.52
2018-05-07T11:48:51.925Z,43.79
2018-05-07T11:49:51.945Z,45.61
2018-05-07T11:50:51.959Z,46.89
2018-05-07T11:51:51.974Z,44.67
2018-05-07T11:52:51.998Z,45.61
2018-05-07T11:53:52.011Z,46.77
2018-05-07T11:54:52.050Z,45.92
2018-05-07T11:55:52.941Z,47.28
2018-05-07T11:56:52.061Z,46.80
2018-05-07T11:57:52.070Z,45.92
2018-05-07T11:58:52.860Z,45.73
2018-05-07T11:59:52.865Z,45.44
2018-05-07T12:00:52.864Z,44.54
2018-05-07T12:01:52.134Z,45.22
2018-05-07T12:02:52.145Z,45.56
2018-05-07T12:03:52.168Z,45.00
2018-05-07T12:04:52.184Z,45.21
2018-05-07T12:05:52.191Z,43.08
2018-05-07T12:06:52.206Z,43.88
2018-05-07T12:07:52.954Z,44.37
2018-05-07T12:08:52.236Z,43.86
2018-05-07T12:09:52.255Z,45.54
2018-05-07T12:10:52.261Z,44.57
2018-05-07T12:11:52.302Z,45.56
2018-05-07T12:12:52.295Z,45.65
2018-05-07T12:13:52.319Z,44.20
2018-05-07T12:14:52.352Z,43.87
2018-05-07T12:15:52.493Z,45.64
2018-05-07T12:16:52.938Z,44.93
2018-05-07T12:17:52.364Z,44.76
2018-05-07T12:18:52.448Z,45.56
2018-05-07T12:19:52.940Z,44.40
2018-05-07T12:20:52.936Z,44.34
2018-05-07T12:21:52.434Z,44.10
2018-05-07T12:22:52.455Z,46.67
2018-05-07T12:23:52.463Z,47.33
2018-05-07T12:24:52.514Z,47.19
2018-05-07T12:25:53.442Z,48.21
2018-05-07T12:26:53.453Z,49.34
2018-05-07T12:27:53.446Z,50.40
2018-05-07T12:28:53.436Z,50.33
2018-05-07T12:29:52.536Z,49.55
2018-05-07T12:30:52.610Z,49.24
2018-05-07T12:31:52.678Z,50.21
2018-05-07T12:32:53.459Z,50.04
2018-05-07T12:33:52.588Z,51.78
2018-05-07T12:34:52.622Z,50.65
2018-05-07T12:35:53.441Z,49.46
2018-05-07T12:36:52.638Z,50.13
2018-05-07T12:37:52.637Z,50.04
2018-05-07T12:38:52.632Z,50.23
2018-05-07T12:39:52.646Z,50.23
2018-05-07T12:40:52.640Z,49.24
2018-05-07T12:41:52.649Z,49.95
2018-05-07T12:42:52.655Z,50.23
2018-05-07T12:43:52.660Z,50.11
2018-05-07T12:44:52.667Z,50.21
2018-05-07T12:45:52.675Z,50.31
2018-05-07T12:46:52.688Z,49.82
2018-05-07T12:47:52.690Z,50.59
2018-05-07T12:48:52.687Z,50.11
2018-05-07T12:49:52.691Z,50.50
2018-05-07T12:50:52.697Z,52.07
2018-05-07T12:51:52.702Z,50.21
2018-05-07T12:52:52.707Z,50.33
2018-05-07T12:53:52.710Z,52.45
2018-05-07T12:54:52.714Z,51.97
2018-05-07T12:55:52.732Z,52.75
2018-05-07T12:56:52.719Z,51.29
2018-05-07T12:57:52.718Z,50.01
2018-05-07T12:58:52.717Z,49.82
2018-05-07T12:59:52.799Z,50.40
2018-05-07T13:00:52.732Z,50.21
2018-05-07T13:01:52.731Z,50.21
2018-05-07T13:02:52.735Z,51.17
2018-05-07T13:03:52.739Z,51.20
2018-05-07T13:04:52.746Z,50.21
2018-05-07T13:05:52.809Z,51.07
2018-05-07T13:06:52.738Z,51.56
2018-05-07T13:07:52.751Z,51.27
2018-05-07T13:08:52.748Z,51.17
2018-05-07T13:09:52.753Z,51.17
2018-05-07T13:10:52.752Z,51.75
2018-05-07T13:11:52.756Z,51.78
2018-05-07T13:12:52.761Z,51.68
2018-05-07T13:13:52.757Z,50.13
2018-05-07T13:14:52.759Z,50.11
2018-05-07T13:15:52.772Z,50.21
2018-05-07T13:16:52.770Z,49.73
2018-05-07T13:17:52.767Z,50.13
2018-05-07T13:18:52.765Z,51.49
2018-05-07T13:19:52.759Z,51.10
2018-05-07T13:20:52.779Z,50.33
2018-05-07T13:21:52.774Z,49.65
2018-05-07T13:22:52.772Z,50.31
2018-05-07T13:23:52.776Z,50.43
2018-05-07T13:24:52.832Z,50.31
2018-05-07T13:25:52.791Z,51.20
2018-05-07T13:26:52.781Z,50.31
2018-05-07T13:27:52.784Z,49.44
2018-05-07T13:28:52.780Z,49.63
2018-05-07T13:29:52.791Z,50.21
2018-05-07T13:30:52.789Z,51.10
2018-05-07T13:31:52.791Z,50.79
2018-05-07T13:32:52.789Z,50.59
2018-05-07T13:33:52.782Z,50.89
2018-05-07T13:34:52.795Z,51.59
2018-05-07T13:35:52.793Z,50.81
2018-05-07T13:36:52.848Z,51.78
2018-05-07T13:37:52.795Z,50.52
2018-05-07T13:38:52.798Z,50.33
2018-05-07T13:39:52.799Z,49.85
2018-05-07T13:40:52.814Z,50.23
2018-05-07T13:41:52.807Z,51.87
2018-05-07T13:42:52.792Z,49.85
2018-05-07T13:43:52.802Z,50.23
2018-05-07T13:44:52.806Z,50.62
2018-05-07T13:45:52.812Z,50.13
2018-05-07T13:46:52.809Z,51.20
2018-05-07T13:47:52.817Z,50.23
2018-05-07T13:48:52.810Z,50.33
2018-05-07T13:49:52.816Z,49.95
2018-05-07T13:50:52.815Z,50.13
2018-05-07T13:51:52.817Z,50.23
2018-05-07T13:52:52.818Z,50.43
2018-05-07T13:53:52.817Z,50.04
2018-05-07T13:54:52.831Z,50.65
2018-05-07T13:55:52.824Z,50.84
2018-05-07T13:56:52.872Z,50.26
2018-05-07T13:57:52.820Z,51.03
2018-05-07T13:58:52.826Z,50.26
2018-05-07T13:59:52.839Z,50.45
2018-05-07T14:00:52.834Z,50.35
2018-05-07T14:01:52.836Z,49.68
2018-05-07T14:02:52.838Z,49.97
2018-05-07T14:03:52.832Z,49.87
2018-05-07T14:04:52.834Z,49.65
2018-05-07T14:05:52.839Z,50.33
2018-05-07T14:06:52.871Z,50.13
2018-05-07T14:07:52.845Z,51.10
2018-05-07T14:08:52.845Z,50.23
2018-05-07T14:09:52.859Z,51.27
2018-05-07T14:10:52.872Z,50.69
2018-05-07T14:11:52.873Z,51.78
2018-05-07T14:12:52.860Z,51.75
2018-05-07T14:13:52.858Z,50.59
2018-05-07T14:14:52.865Z,50.50
2018-05-07T14:15:52.861Z,51.85
2018-05-07T14:16:52.865Z,51.17
2018-05-07T14:17:52.867Z,51.07
2018-05-07T14:18:52.868Z,51.46
2018-05-07T14:19:52.877Z,51.56
2018-05-07T14:20:52.873Z,53.03
2018-05-07T14:21:52.880Z,51.20
2018-05-07T14:22:52.881Z,52.67
2018-05-07T14:23:52.883Z,50.23
2018-05-07T14:24:52.889Z,50.71
2018-05-07T14:25:52.891Z,51.90
2018-05-07T14:26:52.891Z,51.23
2018-05-07T14:27:52.887Z,50.76
2018-05-07T14:28:52.893Z,52.53
2018-05-07T14:29:52.901Z,51.66
2018-05-07T14:30:52.904Z,49.63
2018-05-07T14:31:52.906Z,48.90
2018-05-07T14:32:52.915Z,49.87
2018-05-07T14:33:52.912Z,49.39
2018-05-07T14:34:52.918Z,49.19
2018-05-07T14:35:52.919Z,49.39
2018-05-07T14:36:52.950Z,48.52
2018-05-07T14:37:52.941Z,48.61
2018-05-07T14:38:52.989Z,49.55
2018-05-07T14:39:52.935Z,50.33
2018-05-07T14:40:52.941Z,49.19